KGMJ

Grove Municipal Airport

Grove, Oklahoma, USA
METAR KGMJ 162215Z AUTO 00000KT 10SM CLR 15/01 A3023 RMK AO2
Observed Flight Rules
Dec-16 @ 22:15 UTC (18 minutes ago) Visual Flight Rules
Visibility Clouds
10 miles
  • Clear skies
Temperatures Readings
Current 15°C / 59°F
Dewpoint 1°C / 34°F
Humidity 39%
Altimeter 30.23" Hg
Pressure 1024 hPa
Elevation 254
METAR KGMJ 162215Z AUTO 00000KT 10SM CLR 15/01 A3023 RMK AO2
Observed Flight Rules
Dec-16 @ 22:15 UTC
(18 minutes ago)
VFR
Clouds
  • Clear skies
Temperature Dewpoint
15°C / 59°F 1°C / 34°F
Humidity Altimeter Pressure
39% 30.23" Hg 1024 hPa